Time;durP1;ratioP1;P1;durP2;ratioP2;P2;SDS_P1;SDS_P2;PMS_P1;PMS_P2;Temp;Humidity;BMP_temperature;BMP_pressure;BME280_temperature;BME280_humidity;BME280_pressure;Samples;Min_cycle;Max_cycle;Signal;HPM_P1;HPM_P2
2021/09/29 00:02:01;;;;;;;211.13;199.23;;;10.10;99.90;;;;;;6256417;23;20407;-85
2021/09/29 00:04:32;;;;;;;210.27;199.37;;;10.10;99.90;;;;;;6256213;23;20419;-86
2021/09/29 00:06:59;;;;;;;217.20;205.50;;;10.00;99.90;;;;;;6256126;23;20399;-84
2021/09/29 00:09:26;;;;;;;212.30;201.60;;;10.00;99.90;;;;;;6246662;23;20695;-85
2021/09/29 00:11:53;;;;;;;222.33;210.90;;;10.00;99.90;;;;;;6256626;23;20914;-86
2021/09/29 00:14:20;;;;;;;221.83;210.43;;;9.90;99.90;;;;;;6255085;23;20851;-86
2021/09/29 00:16:47;;;;;;;222.27;211.10;;;9.90;99.90;;;;;;6256636;23;20461;-85
2021/09/29 00:19:14;;;;;;;240.47;227.53;;;9.90;99.90;;;;;;6246404;23;20399;-86
2021/09/29 00:21:46;;;;;;;230.93;218.03;;;9.80;99.90;;;;;;6245858;23;20399;-86
2021/09/29 00:24:13;;;;;;;230.10;218.47;;;9.90;99.90;;;;;;6256133;23;20415;-85
2021/09/29 00:26:44;;;;;;;240.93;228.97;;;9.80;99.90;;;;;;6256477;23;20403;-86
2021/09/29 00:29:11;;;;;;;242.03;229.73;;;9.80;99.90;;;;;;6254747;23;20922;-86
2021/09/29 00:31:39;;;;;;;236.50;224.20;;;9.80;99.90;;;;;;6256402;23;20520;-86
2021/09/29 00:34:24;;;;;;;240.30;227.83;;;9.80;99.90;;;;;;6256007;23;20435;-86
2021/09/29 00:36:54;;;;;;;249.83;236.43;;;9.70;99.90;;;;;;6256092;23;20400;-85
2021/09/29 00:39:21;;;;;;;246.53;232.53;;;9.80;99.90;;;;;;6256451;23;20902;-86
2021/09/29 00:41:50;;;;;;;247.77;235.30;;;9.80;99.90;;;;;;6246145;23;20434;-86
2021/09/29 00:44:17;;;;;;;256.07;242.57;;;9.90;99.90;;;;;;6254763;23;20459;-85
2021/09/29 00:46:44;;;;;;;250.67;237.60;;;9.90;99.90;;;;;;6245666;23;20407;-86
2021/09/29 00:49:11;;;;;;;250.93;237.60;;;9.90;99.90;;;;;;6245707;23;20402;-86
2021/09/29 00:51:42;;;;;;;250.80;238.00;;;9.80;99.90;;;;;;6256218;23;20477;-85
2021/09/29 00:54:14;;;;;;;248.67;235.43;;;9.90;99.90;;;;;;6255838;23;20407;-87
2021/09/29 00:56:41;;;;;;;250.93;238.30;;;9.90;99.90;;;;;;6246047;23;20465;-86
2021/09/29 00:59:15;;;;;;;254.17;240.40;;;9.70;99.90;;;;;;6244695;23;20461;-85
2021/09/29 01:01:45;;;;;;;254.13;240.30;;;9.70;99.90;;;;;;6256126;23;20415;-86
2021/09/29 01:04:12;;;;;;;250.73;238.03;;;9.70;99.90;;;;;;6245815;23;20469;-86
2021/09/29 01:06:48;;;;;;;260.70;247.07;;;9.70;99.90;;;;;;6246070;23;20400;-85
2021/09/29 01:09:21;;;;;;;260.43;246.80;;;9.80;99.90;;;;;;6255972;23;20445;-84
2021/09/29 01:11:55;;;;;;;261.93;249.20;;;9.80;99.90;;;;;;6255833;22;20796;-85
2021/09/29 01:14:28;;;;;;;258.27;243.90;;;9.80;99.90;;;;;;6254822;23;20411;-86
2021/09/29 01:16:58;;;;;;;256.83;243.60;;;9.80;99.90;;;;;;6255923;23;20407;-85
2021/09/29 01:19:44;;;;;;;253.17;239.90;;;9.80;99.90;;;;;;6246069;23;20404;-86
2021/09/29 01:22:21;;;;;;;256.57;243.27;;;9.80;99.90;;;;;;6245772;23;20407;-86
2021/09/29 01:24:58;;;;;;;250.67;237.40;;;9.90;99.90;;;;;;6245961;23;20395;-86
2021/09/29 01:27:29;;;;;;;259.50;244.63;;;9.80;99.90;;;;;;6256254;23;20434;-86
2021/09/29 01:30:03;;;;;;;254.97;242.47;;;9.90;99.90;;;;;;6244706;23;20402;-86
2021/09/29 01:32:32;;;;;;;264.73;250.70;;;10.00;99.90;;;;;;6245665;23;20434;-87
2021/09/29 01:34:59;;;;;;;252.93;239.50;;;9.90;99.90;;;;;;6256034;23;20412;-85
2021/09/29 01:37:29;;;;;;;252.50;239.70;;;10.00;99.90;;;;;;6256078;23;20481;-86
2021/09/29 01:39:56;;;;;;;246.60;233.60;;;9.90;99.90;;;;;;6256154;23;20403;-86
2021/09/29 01:42:24;;;;;;;243.60;231.57;;;9.90;99.90;;;;;;6245509;23;20418;-85
2021/09/29 01:44:58;;;;;;;250.33;237.50;;;9.90;99.90;;;;;;6254630;23;20410;-85
2021/09/29 01:47:29;;;;;;;247.33;234.67;;;9.90;99.90;;;;;;6255570;23;20925;-84
2021/09/29 01:50:00;;;;;;;239.67;226.87;;;9.90;99.90;;;;;;6256037;23;20434;-86
2021/09/29 01:52:29;;;;;;;240.13;226.93;;;10.00;99.90;;;;;;6255848;23;20443;-86
2021/09/29 01:55:00;;;;;;;238.87;226.73;;;9.90;99.90;;;;;;6245902;23;20735;-86
2021/09/29 01:57:33;;;;;;;233.03;221.23;;;10.00;99.90;;;;;;6255979;23;20399;-83
2021/09/29 02:00:01;;;;;;;235.87;223.60;;;10.00;99.90;;;;;;6254243;23;20743;-86
2021/09/29 02:02:28;;;;;;;230.87;218.90;;;9.90;99.90;;;;;;6255977;23;20437;-86
2021/09/29 02:05:04;;;;;;;226.17;214.77;;;10.00;99.90;;;;;;6255873;23;20937;-86
2021/09/29 02:07:33;;;;;;;221.00;209.47;;;10.10;99.90;;;;;;6245195;23;20973;-86
2021/09/29 02:10:00;;;;;;;216.13;204.90;;;10.00;99.90;;;;;;6256593;23;20940;-86
2021/09/29 02:12:30;;;;;;;210.97;199.70;;;10.10;99.90;;;;;;6257250;23;20934;-85
2021/09/29 02:14:59;;;;;;;213.43;202.00;;;10.00;99.90;;;;;;6246083;23;20482;-87
2021/09/29 02:17:28;;;;;;;205.00;194.07;;;10.00;99.90;;;;;;6247634;23;20427;-84
2021/09/29 02:19:58;;;;;;;205.73;195.00;;;10.10;99.90;;;;;;6247649;23;20435;-85
2021/09/29 02:22:28;;;;;;;193.73;183.33;;;10.00;99.90;;;;;;6247510;23;20486;-84
2021/09/29 02:24:55;;;;;;;188.77;179.13;;;10.00;99.90;;;;;;6247131;23;20465;-84
2021/09/29 02:27:22;;;;;;;185.60;175.87;;;9.90;99.90;;;;;;6247462;23;20449;-83
2021/09/29 02:29:52;;;;;;;183.60;174.30;;;9.90;99.90;;;;;;6256311;23;20417;-84
2021/09/29 02:32:19;;;;;;;177.50;168.20;;;9.80;99.90;;;;;;6257201;23;20942;-83
2021/09/29 02:34:47;;;;;;;177.50;167.87;;;9.90;99.90;;;;;;6247416;23;20418;-84
2021/09/29 02:37:15;;;;;;;177.47;168.07;;;9.80;99.90;;;;;;6256995;23;20430;-84
2021/09/29 02:39:42;;;;;;;169.70;160.37;;;9.70;99.90;;;;;;6257428;23;20411;-83
2021/09/29 02:42:12;;;;;;;174.93;165.17;;;9.70;99.90;;;;;;6257204;23;20443;-84
2021/09/29 02:44:39;;;;;;;166.73;157.57;;;9.60;99.90;;;;;;6256325;23;20431;-84
2021/09/29 02:47:08;;;;;;;168.80;159.20;;;9.60;99.90;;;;;;6257322;23;20906;-85
2021/09/29 02:49:37;;;;;;;163.93;155.40;;;9.40;99.90;;;;;;6257206;23;20952;-84
2021/09/29 02:52:07;;;;;;;164.17;155.90;;;9.40;99.90;;;;;;6247133;23;20463;-85
2021/09/29 02:54:41;;;;;;;175.87;166.17;;;9.30;99.90;;;;;;6247300;23;20403;-83
2021/09/29 02:57:08;;;;;;;185.50;175.50;;;9.30;99.90;;;;;;6247256;23;20770;-84
2021/09/29 02:59:35;;;;;;;186.77;177.40;;;9.20;99.90;;;;;;6255704;23;20470;-83
2021/09/29 03:02:07;;;;;;;191.07;180.67;;;9.00;99.90;;;;;;6257001;23;20439;-83
2021/09/29 03:04:34;;;;;;;200.30;189.57;;;9.10;99.90;;;;;;6257111;23;20922;-85
2021/09/29 03:07:01;;;;;;;204.00;193.73;;;9.10;99.90;;;;;;6256880;23;20906;-85
2021/09/29 03:09:37;;;;;;;203.23;192.87;;;9.20;99.90;;;;;;6257186;23;20422;-84
2021/09/29 03:12:05;;;;;;;200.47;190.60;;;9.20;99.90;;;;;;6247090;23;20455;-84
2021/09/29 03:14:32;;;;;;;201.43;191.10;;;9.20;99.90;;;;;;6255484;23;20415;-84
2021/09/29 03:17:03;;;;;;;196.93;186.43;;;9.20;99.90;;;;;;6246905;23;20400;-85
2021/09/29 03:19:30;;;;;;;195.70;185.50;;;9.20;99.90;;;;;;6247036;23;20403;-85
2021/09/29 03:22:00;;;;;;;188.90;179.17;;;9.10;99.90;;;;;;6256395;23;20413;-84
2021/09/29 03:24:28;;;;;;;185.87;175.90;;;9.20;99.90;;;;;;6257000;23;20413;-83
2021/09/29 03:26:59;;;;;;;189.17;179.67;;;9.30;99.90;;;;;;6246936;23;20399;-84
2021/09/29 03:29:26;;;;;;;190.03;180.40;;;9.20;99.90;;;;;;6245640;23;20403;-84
2021/09/29 03:31:53;;;;;;;195.30;184.07;;;9.10;99.90;;;;;;6246515;23;20427;-81
2021/09/29 03:34:20;;;;;;;198.77;188.87;;;9.20;99.90;;;;;;6246596;23;20913;-84
2021/09/29 03:36:47;;;;;;;193.00;182.77;;;9.10;99.90;;;;;;6246716;23;20436;-84
2021/09/29 03:39:14;;;;;;;201.67;190.90;;;9.10;99.90;;;;;;6246860;23;20486;-80
2021/09/29 03:41:41;;;;;;;194.03;184.23;;;9.10;99.90;;;;;;6246458;23;20411;-84
2021/09/29 03:44:09;;;;;;;184.43;174.53;;;9.10;99.90;;;;;;6245209;23;20403;-84
2021/09/29 03:46:44;;;;;;;188.83;178.77;;;9.10;99.90;;;;;;6256534;23;20419;-84
2021/09/29 03:49:12;;;;;;;196.17;185.10;;;9.00;99.90;;;;;;6246686;23;20445;-85
2021/09/29 03:51:42;;;;;;;193.80;183.20;;;9.10;99.90;;;;;;6256504;23;20574;-83
2021/09/29 03:54:11;;;;;;;182.90;173.30;;;9.20;99.90;;;;;;6246809;23;20439;-82
2021/09/29 03:56:40;;;;;;;181.27;171.40;;;9.20;99.90;;;;;;6256333;23;20466;-83
2021/09/29 03:59:07;;;;;;;189.93;179.17;;;9.10;99.90;;;;;;6255291;23;20403;-84
2021/09/29 04:01:38;;;;;;;178.23;168.10;;;9.20;99.90;;;;;;6256214;23;20438;-84
2021/09/29 04:04:05;;;;;;;173.90;164.37;;;9.30;99.90;;;;;;6256722;23;20435;-84
2021/09/29 04:06:32;;;;;;;174.77;164.63;;;9.20;99.90;;;;;;6246049;23;20510;-82
2021/09/29 04:09:00;;;;;;;165.77;156.20;;;9.20;99.90;;;;;;6255842;23;20500;-84
2021/09/29 04:11:27;;;;;;;169.13;159.50;;;9.10;99.90;;;;;;6256030;23;20485;-83
2021/09/29 04:13:56;;;;;;;164.23;154.80;;;9.10;99.90;;;;;;6255357;23;20405;-84
2021/09/29 04:16:23;;;;;;;171.97;162.00;;;9.00;99.90;;;;;;6256404;23;20731;-84
2021/09/29 04:18:57;;;;;;;167.07;157.30;;;9.00;99.90;;;;;;6256252;23;20403;-84
2021/09/29 04:21:26;;;;;;;176.73;166.73;;;9.00;99.90;;;;;;6246370;23;20402;-84
2021/09/29 04:23:53;;;;;;;176.00;165.90;;;9.00;99.90;;;;;;6256160;23;20981;-84
2021/09/29 04:26:22;;;;;;;175.20;165.50;;;9.00;99.90;;;;;;6256125;23;20420;-83
2021/09/29 04:28:49;;;;;;;173.93;164.13;;;8.90;99.90;;;;;;6245155;23;20400;-84
2021/09/29 04:31:16;;;;;;;173.90;164.00;;;9.00;99.90;;;;;;6246468;23;20871;-88
2021/09/29 04:33:46;;;;;;;183.60;172.53;;;9.00;99.90;;;;;;6256029;23;20830;-84
2021/09/29 04:36:17;;;;;;;173.20;162.37;;;8.90;99.90;;;;;;6256390;23;20407;-84
2021/09/29 04:38:49;;;;;;;184.90;174.50;;;9.00;99.90;;;;;;6246234;23;20485;-83
2021/09/29 04:41:19;;;;;;;178.53;167.97;;;8.90;99.90;;;;;;6246223;23;20475;-85
2021/09/29 04:43:50;;;;;;;178.20;167.60;;;8.90;99.90;;;;;;6245042;23;20400;-84
2021/09/29 04:46:25;;;;;;;180.90;170.70;;;9.00;99.90;;;;;;6245721;23;20408;-87
2021/09/29 04:48:54;;;;;;;178.63;167.87;;;9.30;99.90;;;;;;6256254;23;20446;-85
2021/09/29 04:51:26;;;;;;;176.93;165.83;;;9.20;99.90;;;;;;6245951;23;20406;-82
2021/09/29 04:53:58;;;;;;;175.93;164.43;;;9.20;99.90;;;;;;6246266;23;20431;-83
2021/09/29 04:56:34;;;;;;;173.63;163.00;;;9.40;99.90;;;;;;6246322;23;20406;-85
2021/09/29 04:59:04;;;;;;;168.27;158.07;;;9.30;99.90;;;;;;6244780;23;20403;-85
2021/09/29 05:01:42;;;;;;;170.67;160.60;;;9.20;99.90;;;;;;6256272;23;20416;-85
2021/09/29 05:04:16;;;;;;;171.57;161.67;;;9.30;99.90;;;;;;6257360;23;20500;-87
2021/09/29 05:06:45;;;;;;;169.77;160.40;;;9.30;99.90;;;;;;6257337;23;20417;-83
2021/09/29 05:09:12;;;;;;;170.17;160.67;;;9.50;99.90;;;;;;6246258;23;20435;-85
2021/09/29 05:11:48;;;;;;;164.90;155.27;;;9.40;99.90;;;;;;6255562;23;20956;-85
2021/09/29 05:14:15;;;;;;;163.00;153.40;;;9.50;99.90;;;;;;6244919;23;20403;-85
2021/09/29 05:16:47;;;;;;;159.50;149.77;;;9.50;99.90;;;;;;6245985;23;20400;-85
2021/09/29 05:19:24;;;;;;;154.97;145.70;;;9.60;99.90;;;;;;6255577;23;20481;-85
2021/09/29 05:22:06;;;;;;;147.07;138.57;;;9.70;99.90;;;;;;6245779;23;20406;-84
2021/09/29 05:24:40;;;;;;;142.80;134.63;;;9.70;99.90;;;;;;6255581;23;20411;-85
2021/09/29 05:27:10;;;;;;;137.53;129.60;;;9.80;99.90;;;;;;6256176;23;20457;-84
2021/09/29 05:29:45;;;;;;;132.47;125.30;;;9.70;99.90;;;;;;6254835;23;20434;-85
2021/09/29 05:32:15;;;;;;;132.17;124.80;;;9.80;99.90;;;;;;6256035;23;20978;-85
2021/09/29 05:34:45;;;;;;;126.67;119.90;;;9.90;99.90;;;;;;6245682;23;20410;-84
2021/09/29 05:37:13;;;;;;;124.83;117.80;;;9.90;99.90;;;;;;6255556;23;20790;-83
2021/09/29 05:39:45;;;;;;;126.07;118.13;;;10.00;99.90;;;;;;6256095;23;20415;-83
2021/09/29 05:42:15;;;;;;;122.10;115.37;;;10.10;99.90;;;;;;6244137;23;20419;-83
2021/09/29 05:44:50;;;;;;;117.87;111.60;;;10.20;99.90;;;;;;6255073;23;20772;-86
2021/09/29 05:47:17;;;;;;;113.20;107.10;;;10.20;99.90;;;;;;6258128;23;20505;-84
2021/09/29 05:49:44;;;;;;;113.20;107.10;;;10.20;99.90;;;;;;6247894;23;20408;-85
2021/09/29 05:52:15;;;;;;;115.27;108.53;;;10.40;99.90;;;;;;6247822;23;20879;-85
2021/09/29 05:54:42;;;;;;;106.50;100.50;;;10.50;99.90;;;;;;6247444;23;20405;-84
2021/09/29 05:57:13;;;;;;;101.70;96.07;;;10.50;99.90;;;;;;6247999;23;20453;-85
2021/09/29 05:59:43;;;;;;;108.47;102.37;;;10.60;99.90;;;;;;6245911;23;20404;-86
2021/09/29 06:02:18;;;;;;;108.63;102.43;;;10.60;99.90;;;;;;6257287;22;20757;-85
2021/09/29 06:05:22;;;;;;;110.47;104.53;;;10.60;99.90;;;;;;6257833;23;20403;-87
2021/09/29 06:08:28;;;;;;;116.00;108.73;;;10.70;99.90;;;;;;6105308;23;20447;-86
2021/09/29 06:11:23;;;;;;;118.30;111.00;;;10.60;99.90;;;;;;6105993;23;20883;-90
2021/09/29 06:13:53;;;;;;;121.43;114.73;;;10.70;99.90;;;;;;6215159;23;20444;-86
2021/09/29 06:17:10;;;;;;;;;;;;;;;;;;;;;
2021/09/29 06:37:39;;;;;;;;;;;;;;;;;;;;;
2021/09/29 06:48:18;;;;;;;149.97;141.77;;;11.10;99.90;;;;;;5937715;24;20911;-88
2021/09/29 06:50:45;;;;;;;149.70;141.00;;;11.10;99.90;;;;;;6126971;23;20416;-81
2021/09/29 07:34:42;;;;;;;139.57;131.87;;;12.10;99.90;;;;;;6136153;23;20506;-85
2021/09/29 10:05:01;;;;;;;;;;;;;;;;;;;;;
2021/09/29 10:08:17;;;;;;;30.93;29.63;;;12.50;99.90;;;;;;6244701;23;20403;-84
2021/09/29 10:34:05;;;;;;;3.70;3.40;;;13.60;90.70;;;;;;6232222;22;20451;-85
2021/09/29 10:37:11;;;;;;;3.53;2.17;;;13.60;90.50;;;;;;6247286;22;20469;-85
2021/09/29 10:42:55;;;;;;;4.43;2.70;;;13.60;89.40;;;;;;6257545;23;20405;-84
2021/09/29 11:32:30;;;;;;;5.33;1.90;;;17.00;57.90;;;;;;6206551;23;20933;-77
2021/09/29 12:10:28;;;;;;;5.00;2.37;;;16.00;52.80;;;;;;6112024;23;20457;-88
2021/09/29 12:17:28;;;;;;;5.83;2.10;;;15.60;54.60;;;;;;5996715;23;20420;-87
2021/09/29 12:20:52;;;;;;;3.57;1.73;;;17.20;53.20;;;;;;5895624;24;20517;-87
2021/09/29 12:28:11;;;;;;;;;;;;;;;;;;;;;
2021/09/29 12:30:42;;;;;;;6.80;1.53;;;19.80;34.80;;;;;;5794422;24;20430;-82
2021/09/29 12:40:12;;;;;;;94.60;34.23;;;19.70;29.10;;;;;;5820366;24;20459;-86
2021/09/29 12:43:31;;;;;;;;;;;;;;;;;;;;;
2021/09/29 12:50:14;;;;;;;76.30;14.73;;;19.10;29.50;;;;;;5923311;24;20446;-87
2021/09/29 12:56:47;;;;;;;;;;;;;;;;;;;;;
2021/09/29 12:59:22;;;;;;;5.93;1.33;;;12.30;46.50;;;;;;5880782;23;20503;-87
2021/09/29 13:01:49;;;;;;;4.90;1.90;;;11.90;55.60;;;;;;6042623;23;20916;-88
2021/09/29 13:04:16;;;;;;;6.63;1.70;;;11.40;88.10;;;;;;6128620;23;20446;-85
2021/09/29 13:06:44;;;;;;;5.43;1.97;;;10.90;79.30;;;;;;6134262;23;20419;-91
2021/09/29 13:09:10;;;;;;;5.90;2.60;;;10.60;99.00;;;;;;6133662;23;20899;-91
2021/09/29 13:11:55;;;;;;;7.00;3.63;;;10.10;99.90;;;;;;6141912;23;20428;-90
2021/09/29 13:14:25;;;;;;;7.37;6.77;;;9.90;99.90;;;;;;6194005;23;20413;-88
2021/09/29 13:17:05;;;;;;;6.90;4.13;;;10.00;99.90;;;;;;6195707;23;20769;-90
2021/09/29 13:19:35;;;;;;;8.90;8.10;;;10.00;99.90;;;;;;6195153;23;20918;-82
2021/09/29 13:41:14;;;;;;;2.90;1.93;;;12.60;98.70;;;;;;6201249;23;20451;-89
2021/09/29 13:43:46;;;;;;;5.53;1.50;;;13.30;87.30;;;;;;6222398;23;20469;-88
2021/09/29 13:46:13;;;;;;;3.00;1.17;;;14.10;79.70;;;;;;6215323;23;20447;-85
2021/09/29 13:48:47;;;;;;;3.00;1.50;;;14.40;60.80;;;;;;6215192;23;20460;-85
2021/09/29 13:51:14;;;;;;;5.90;1.50;;;14.90;60.70;;;;;;6225471;23;20413;-87
2021/09/29 13:53:41;;;;;;;7.23;1.33;;;14.90;59.40;;;;;;6225663;23;20407;-86
2021/09/29 13:56:31;;;;;;;4.33;1.33;;;14.80;60.70;;;;;;6215216;23;20402;-86
2021/09/29 13:59:36;;;;;;;4.13;1.40;;;14.60;61.20;;;;;;6214036;23;20448;-87
2021/09/29 14:30:07;;;;;;;6.27;1.30;;;17.50;38.70;;;;;;6079783;23;20888;-88
2021/09/29 14:33:39;;;;;;;4.07;1.25;;;17.00;41.40;;;;;;6157445;23;20446;-87
2021/09/29 14:49:11;;;;;;;5.50;1.73;;;15.50;46.00;;;;;;6136855;23;20416;-87
2021/09/29 14:52:04;;;;;;;7.70;1.60;;;15.30;48.80;;;;;;6186661;23;20865;-86
2021/09/29 14:54:37;;;;;;;8.30;2.40;;;15.00;48.60;;;;;;6196680;23;20401;-89
2021/09/29 14:57:13;;;;;;;5.10;1.40;;;14.80;46.90;;;;;;6196441;23;20465;-88
2021/09/29 15:00:09;;;;;;;6.43;1.30;;;14.60;40.00;;;;;;6185446;23;20927;-89
2021/09/29 15:02:40;;;;;;;3.93;1.10;;;14.20;38.90;;;;;;6196398;23;20467;-89
2021/09/29 15:51:17;;;;;;;3.30;1.37;;;13.90;47.50;;;;;;5966066;23;20761;-89
2021/09/29 15:54:32;;;;;;;6.10;1.40;;;13.80;47.40;;;;;;6074029;23;20416;-89
2021/09/29 15:59:55;;;;;;;6.20;1.70;;;14.50;53.70;;;;;;6175057;23;20421;-89
2021/09/29 16:02:35;;;;;;;4.70;1.87;;;14.70;51.80;;;;;;6196541;23;20883;-88
2021/09/29 16:08:08;;;;;;;9.20;2.03;;;14.20;50.90;;;;;;6185281;23;20413;-90
2021/09/29 16:16:40;;;;;;;5.93;1.83;;;13.70;49.70;;;;;;6083243;23;20496;-88
2021/09/29 16:22:38;;;;;;;8.90;1.73;;;13.20;51.60;;;;;;6161347;23;20402;-90
2021/09/29 16:31:30;;;;;;;12.23;1.73;;;13.60;53.60;;;;;;6128551;23;20970;-90
2021/09/29 16:34:07;;;;;;;9.43;1.60;;;14.20;49.80;;;;;;6224437;23;20408;-90
2021/09/29 16:36:52;;;;;;;11.43;2.57;;;14.50;48.10;;;;;;6214563;23;20710;-90
2021/09/29 16:39:49;;;;;;;;;;;;;;;;;;;;;
2021/09/29 16:42:57;;;;;;;6.93;1.47;;;14.80;46.80;;;;;;6224404;23;20404;-83
2021/09/29 16:45:59;;;;;;;9.40;1.90;;;14.30;44.90;;;;;;6189901;23;20483;-85
2021/09/29 16:48:32;;;;;;;3.53;1.40;;;13.80;46.40;;;;;;6224481;23;20411;-86
2021/09/29 16:51:28;;;;;;;6.93;2.50;;;13.30;47.90;;;;;;6225333;23;20443;-84
2021/09/29 16:54:50;;;;;;;;;;;;;;;;;;;;;
2021/09/29 16:57:23;;;;;;;6.00;1.40;;;12.60;51.10;;;;;;6206392;23;20423;-88
2021/09/29 17:00:02;;;;;;;10.43;2.13;;;12.40;52.30;;;;;;6223172;23;20431;-89
2021/09/29 17:03:09;;;;;;;;;;;;;;;;;;;;;
2021/09/29 17:05:46;;;;;;;6.30;1.53;;;12.00;50.50;;;;;;6189517;23;20543;-89
2021/09/29 17:08:13;;;;;;;9.30;2.27;;;12.20;47.10;;;;;;6226409;23;20727;-91
2021/09/29 17:10:42;;;;;;;9.07;1.70;;;12.20;45.90;;;;;;6226458;23;20415;-89
2021/09/29 17:13:36;;;;;;;6.70;1.60;;;12.10;43.60;;;;;;6227411;23;20419;-91
2021/09/29 17:16:17;;;;;;;5.43;1.27;;;12.10;42.60;;;;;;6227121;23;20411;-89
2021/09/29 17:18:47;;;;;;;6.70;1.40;;;12.10;45.80;;;;;;6218097;23;20398;-90
2021/09/29 17:21:27;;;;;;;6.00;1.60;;;11.90;45.60;;;;;;6227693;23;20411;-92
2021/09/29 17:23:58;;;;;;;8.00;1.90;;;11.90;45.70;;;;;;6215694;23;20447;-91
2021/09/29 17:26:43;;;;;;;5.33;1.20;;;12.00;45.70;;;;;;6226450;23;20896;-91
2021/09/29 17:29:15;;;;;;;6.00;1.17;;;11.90;44.40;;;;;;6225353;23;20867;-91
2021/09/29 17:31:49;;;;;;;11.40;1.73;;;12.00;45.70;;;;;;6215717;23;20432;-91
2021/09/29 17:34:23;;;;;;;4.53;1.40;;;12.10;45.80;;;;;;6226357;23;20399;-91
2021/09/29 17:56:52;;;;;;;10.20;2.00;;;11.40;51.40;;;;;;6124834;23;20427;-89
2021/09/29 18:02:44;;;;;;;3.57;1.40;;;11.20;52.90;;;;;;6098899;23;20415;-88
2021/09/29 18:06:11;;;;;;;4.27;1.27;;;11.20;51.40;;;;;;6134458;23;20469;-87
2021/09/29 18:09:16;;;;;;;;;;;;;;;;;;;;;
2021/09/29 18:15:22;;;;;;;4.90;1.23;;;11.10;54.40;;;;;;6060905;23;20415;-89
2021/09/29 18:18:34;;;;;;;;;;;;;;;;;;;;;
2021/09/29 18:24:49;;;;;;;4.70;1.57;;;11.00;52.60;;;;;;6042598;23;20818;-89
2021/09/29 18:47:26;;;;;;;4.40;1.43;;;11.20;53.70;;;;;;6116078;23;20446;-88
2021/09/29 18:53:43;;;;;;;;;;;;;;;;;;;;;
2021/09/29 18:57:19;;;;;;;5.27;1.47;;;11.00;53.10;;;;;;6135612;23;20417;-90
2021/09/29 19:45:12;;;;;;;5.50;1.70;;;10.50;58.90;;;;;;5969135;23;20462;-88
2021/09/29 19:48:12;;;;;;;6.40;2.27;;;10.60;59.60;;;;;;5982039;23;20415;-88
2021/09/29 20:09:30;;;;;;;5.30;1.90;;;10.20;61.90;;;;;;6104331;23;20667;-86
2021/09/29 20:15:00;;;;;;;5.77;2.40;;;10.10;62.40;;;;;;6085459;23;20417;-87
2021/09/29 20:18:17;;;;;;;4.93;2.17;;;10.00;63.60;;;;;;6186117;23;20402;-89
2021/09/29 20:21:25;;;;;;;3.00;1.70;;;9.90;66.30;;;;;;6165069;23;20440;-88
2021/09/29 20:23:57;;;;;;;4.73;2.23;;;9.90;67.00;;;;;;6151451;23;20436;-90
2021/09/29 20:26:36;;;;;;;3.80;1.83;;;9.70;68.40;;;;;;6195340;23;20952;-89
2021/09/29 20:29:19;;;;;;;5.77;2.93;;;9.80;70.40;;;;;;6194842;23;20405;-87
2021/09/29 20:32:07;;;;;;;5.30;2.93;;;9.80;69.90;;;;;;6195790;23;20397;-88
2021/09/29 20:46:28;;;;;;;4.40;2.53;;;9.90;71.90;;;;;;6225319;23;20464;-89
2021/09/29 20:49:05;;;;;;;3.53;2.30;;;10.00;71.30;;;;;;6215740;23;20483;-89
2021/09/29 20:51:40;;;;;;;4.23;2.70;;;10.00;71.30;;;;;;6215748;23;20949;-87
2021/09/29 20:54:19;;;;;;;9.07;3.50;;;9.90;73.40;;;;;;6215734;23;20410;-88
2021/09/29 20:57:05;;;;;;;4.17;3.13;;;10.00;73.00;;;;;;6225532;23;20463;-89
2021/09/29 20:59:50;;;;;;;6.53;3.83;;;10.10;72.80;;;;;;6214573;23;20400;-89
2021/09/29 21:02:31;;;;;;;6.10;3.60;;;10.00;73.50;;;;;;6225468;23;20462;-88
2021/09/29 21:05:31;;;;;;;8.33;3.20;;;9.90;74.60;;;;;;6215486;23;20407;-85
2021/09/29 21:08:03;;;;;;;4.53;3.30;;;9.80;76.40;;;;;;6215611;23;20931;-89
2021/09/29 21:10:48;;;;;;;8.13;4.00;;;9.60;77.60;;;;;;6225306;23;20468;-89
2021/09/29 21:13:36;;;;;;;5.77;3.90;;;9.60;78.70;;;;;;6225502;23;20443;-88
2021/09/29 21:17:49;;;;;;;4.63;4.00;;;9.50;79.90;;;;;;6225244;23;20892;-90
2021/09/29 21:19:50;;;;;;;11.87;4.90;;;9.40;82.20;;;;;;6212288;23;20416;-88
2021/09/29 21:22:19;;;;;;;5.37;4.97;;;9.10;83.70;;;;;;6211515;23;20416;-88
2021/09/29 21:24:47;;;;;;;12.57;5.60;;;9.10;86.10;;;;;;6225614;23;20412;-89
2021/09/29 21:27:15;;;;;;;9.13;6.90;;;9.00;87.60;;;;;;6225226;23;20467;-88
2021/09/29 21:29:44;;;;;;;7.67;7.00;;;8.90;89.30;;;;;;6223950;23;20793;-90
2021/09/29 21:32:12;;;;;;;7.73;7.00;;;8.90;91.00;;;;;;6225190;23;20405;-89
2021/09/29 21:34:40;;;;;;;8.97;7.87;;;8.60;90.90;;;;;;6225483;23;20423;-88
2021/09/29 21:37:11;;;;;;;10.30;8.13;;;8.60;91.30;;;;;;6215175;23;20404;-88
2021/09/29 21:39:56;;;;;;;;;;;;;;;;;;;;;
2021/09/29 21:43:01;;;;;;;10.13;9.40;;;8.40;93.60;;;;;;6225217;23;20404;-90
2021/09/29 22:19:54;;;;;;;17.40;8.63;;;8.90;91.50;;;;;;6224966;23;20719;-88
2021/09/29 22:33:36;;;;;;;9.47;8.67;;;8.90;91.60;;;;;;6226998;23;20415;-89
2021/09/29 23:05:22;;;;;;;8.50;7.90;;;9.10;91.00;;;;;;6216544;23;20468;-89
2021/09/29 23:07:54;;;;;;;9.60;8.70;;;9.20;91.10;;;;;;6226900;23;20406;-89
2021/09/29 23:10:48;;;;;;;8.47;7.77;;;9.00;91.00;;;;;;6226203;23;20722;-87
2021/09/29 23:13:23;;;;;;;9.87;9.00;;;8.90;91.20;;;;;;6216421;23;20405;-87
2021/09/29 23:33:00;;;;;;;12.90;11.87;;;8.70;92.50;;;;;;6226353;23;20399;-89
2021/09/29 23:35:27;;;;;;;12.70;11.27;;;8.70;92.80;;;;;;6226363;23;20419;-88
2021/09/29 23:37:54;;;;;;;12.40;11.50;;;8.80;92.50;;;;;;6216416;23;20408;-89
2021/09/29 23:40:27;;;;;;;11.67;10.60;;;8.70;92.80;;;;;;6226453;23;20434;-87
2021/09/29 23:43:07;;;;;;;13.17;10.70;;;8.70;92.80;;;;;;6226408;23;20420;-89
2021/09/29 23:45:40;;;;;;;11.83;10.93;;;8.60;92.90;;;;;;6224309;23;20443;-88
2021/09/29 23:48:08;;;;;;;13.87;11.63;;;8.70;93.00;;;;;;6226018;23;20802;-88
2021/09/29 23:50:58;;;;;;;11.77;10.90;;;8.70;92.70;;;;;;6226549;23;20458;-89
2021/09/29 23:53:26;;;;;;;12.37;11.57;;;8.70;92.70;;;;;;6226501;23;20731;-88
2021/09/29 23:55:53;;;;;;;11.13;10.47;;;8.70;92.60;;;;;;6226206;23;20440;-88
2021/09/29 23:58:24;;;;;;;11.80;10.60;;;8.70;92.90;;;;;;6215690;23;20922;-88
